sensor_id;sensor_type;location;lat;lon;timestamp;temperature;humidity
5394;DHT22;2720;52.396;10.064;2022-07-19T00:00:00;16.30;99.90
5394;DHT22;2720;52.396;10.064;2022-07-19T00:02:29;16.00;99.90
5394;DHT22;2720;52.396;10.064;2022-07-19T00:04:56;16.00;99.90
5394;DHT22;2720;52.396;10.064;2022-07-19T00:07:23;16.00;99.90
5394;DHT22;2720;52.396;10.064;2022-07-19T00:09:50;15.90;99.90
5394;DHT22;2720;52.396;10.064;2022-07-19T00:12:17;12.70;99.90
5394;DHT22;2720;52.396;10.064;2022-07-19T00:14:44;14.90;99.90
5394;DHT22;2720;52.396;10.064;2022-07-19T00:17:12;15.80;99.90
5394;DHT22;2720;52.396;10.064;2022-07-19T00:19:39;15.80;99.90
5394;DHT22;2720;52.396;10.064;2022-07-19T00:22:06;15.80;99.90
5394;DHT22;2720;52.396;10.064;2022-07-19T00:24:33;15.80;99.90
5394;DHT22;2720;52.396;10.064;2022-07-19T00:27:00;15.70;99.90
5394;DHT22;2720;52.396;10.064;2022-07-19T00:29:27;15.70;99.90
5394;DHT22;2720;52.396;10.064;2022-07-19T00:31:54;15.60;99.90
5394;DHT22;2720;52.396;10.064;2022-07-19T00:34:22;15.60;99.90
5394;DHT22;2720;52.396;10.064;2022-07-19T00:36:50;15.70;99.90
5394;DHT22;2720;52.396;10.064;2022-07-19T00:39:16;15.50;99.90
5394;DHT22;2720;52.396;10.064;2022-07-19T00:41:44;15.60;99.90
5394;DHT22;2720;52.396;10.064;2022-07-19T00:44:11;15.50;99.90
5394;DHT22;2720;52.396;10.064;2022-07-19T00:46:38;15.50;99.90
5394;DHT22;2720;52.396;10.064;2022-07-19T00:49:05;15.60;99.90
5394;DHT22;2720;52.396;10.064;2022-07-19T00:51:37;15.50;99.90
5394;DHT22;2720;52.396;10.064;2022-07-19T00:54:06;16.00;99.90
5394;DHT22;2720;52.396;10.064;2022-07-19T00:56:35;15.40;99.90
5394;DHT22;2720;52.396;10.064;2022-07-19T00:59:04;15.40;99.90
5394;DHT22;2720;52.396;10.064;2022-07-19T01:01:32;15.20;99.90
5394;DHT22;2720;52.396;10.064;2022-07-19T01:03:59;15.10;99.90
5394;DHT22;2720;52.396;10.064;2022-07-19T01:06:26;15.10;99.90
5394;DHT22;2720;52.396;10.064;2022-07-19T01:08:55;15.10;99.90
5394;DHT22;2720;52.396;10.064;2022-07-19T01:11:22;14.80;99.90
5394;DHT22;2720;52.396;10.064;2022-07-19T01:13:49;14.70;99.90
5394;DHT22;2720;52.396;10.064;2022-07-19T01:16:16;14.70;99.90
5394;DHT22;2720;52.396;10.064;2022-07-19T01:18:43;14.70;99.90
5394;DHT22;2720;52.396;10.064;2022-07-19T01:21:19;14.70;99.90
5394;DHT22;2720;52.396;10.064;2022-07-19T01:23:46;14.70;99.90
5394;DHT22;2720;52.396;10.064;2022-07-19T01:26:13;14.70;99.90
5394;DHT22;2720;52.396;10.064;2022-07-19T01:28:40;14.80;99.90
5394;DHT22;2720;52.396;10.064;2022-07-19T01:31:08;14.70;99.90
5394;DHT22;2720;52.396;10.064;2022-07-19T01:33:38;14.70;99.90
5394;DHT22;2720;52.396;10.064;2022-07-19T01:36:06;14.70;99.90
5394;DHT22;2720;52.396;10.064;2022-07-19T01:38:35;14.70;99.90
5394;DHT22;2720;52.396;10.064;2022-07-19T01:41:02;14.60;99.90
5394;DHT22;2720;52.396;10.064;2022-07-19T01:43:30;14.50;99.90
5394;DHT22;2720;52.396;10.064;2022-07-19T01:45:58;14.60;99.90
5394;DHT22;2720;52.396;10.064;2022-07-19T01:48:25;14.70;99.90
5394;DHT22;2720;52.396;10.064;2022-07-19T01:50:52;14.60;99.90
5394;DHT22;2720;52.396;10.064;2022-07-19T01:53:19;14.70;99.90
5394;DHT22;2720;52.396;10.064;2022-07-19T01:55:47;14.70;99.90
5394;DHT22;2720;52.396;10.064;2022-07-19T01:58:14;14.60;99.90
5394;DHT22;2720;52.396;10.064;2022-07-19T02:00:41;14.60;99.90
5394;DHT22;2720;52.396;10.064;2022-07-19T02:03:08;14.60;99.90
5394;DHT22;2720;52.396;10.064;2022-07-19T02:05:35;14.50;99.90
5394;DHT22;2720;52.396;10.064;2022-07-19T02:08:03;14.40;99.90
5394;DHT22;2720;52.396;10.064;2022-07-19T02:10:30;14.30;99.90
5394;DHT22;2720;52.396;10.064;2022-07-19T02:12:59;14.20;99.90
5394;DHT22;2720;52.396;10.064;2022-07-19T02:15:26;14.10;99.90
5394;DHT22;2720;52.396;10.064;2022-07-19T02:17:53;14.10;99.90
5394;DHT22;2720;52.396;10.064;2022-07-19T02:20:21;14.20;99.90
5394;DHT22;2720;52.396;10.064;2022-07-19T02:22:48;14.20;99.90
5394;DHT22;2720;52.396;10.064;2022-07-19T02:25:16;14.10;99.90
5394;DHT22;2720;52.396;10.064;2022-07-19T02:27:43;14.00;99.90
5394;DHT22;2720;52.396;10.064;2022-07-19T02:30:12;14.00;99.90
5394;DHT22;2720;52.396;10.064;2022-07-19T02:32:40;14.00;99.90
5394;DHT22;2720;52.396;10.064;2022-07-19T02:35:08;13.90;99.90
5394;DHT22;2720;52.396;10.064;2022-07-19T02:37:36;13.80;99.90
5394;DHT22;2720;52.396;10.064;2022-07-19T02:40:04;13.70;99.90
5394;DHT22;2720;52.396;10.064;2022-07-19T02:42:32;13.60;99.90
5394;DHT22;2720;52.396;10.064;2022-07-19T02:44:59;13.60;99.90
5394;DHT22;2720;52.396;10.064;2022-07-19T02:47:27;13.50;99.90
5394;DHT22;2720;52.396;10.064;2022-07-19T02:49:54;13.50;99.90
5394;DHT22;2720;52.396;10.064;2022-07-19T02:52:21;13.40;99.90
5394;DHT22;2720;52.396;10.064;2022-07-19T02:54:48;13.40;99.90
5394;DHT22;2720;52.396;10.064;2022-07-19T02:57:15;13.30;99.90
5394;DHT22;2720;52.396;10.064;2022-07-19T02:59:42;13.30;99.90
5394;DHT22;2720;52.396;10.064;2022-07-19T03:02:09;13.30;99.90
5394;DHT22;2720;52.396;10.064;2022-07-19T03:04:37;13.30;99.90
5394;DHT22;2720;52.396;10.064;2022-07-19T03:07:04;13.30;99.90
5394;DHT22;2720;52.396;10.064;2022-07-19T03:09:31;13.20;99.90
5394;DHT22;2720;52.396;10.064;2022-07-19T03:11:58;13.10;99.90
5394;DHT22;2720;52.396;10.064;2022-07-19T03:14:25;13.10;99.90
5394;DHT22;2720;52.396;10.064;2022-07-19T03:16:53;13.10;99.90
5394;DHT22;2720;52.396;10.064;2022-07-19T03:19:20;13.10;99.90
5394;DHT22;2720;52.396;10.064;2022-07-19T03:21:49;13.10;99.90
5394;DHT22;2720;52.396;10.064;2022-07-19T03:24:16;13.10;99.90
5394;DHT22;2720;52.396;10.064;2022-07-19T03:26:43;13.10;99.90
5394;DHT22;2720;52.396;10.064;2022-07-19T03:29:10;13.10;99.90
5394;DHT22;2720;52.396;10.064;2022-07-19T03:31:37;13.10;99.90
5394;DHT22;2720;52.396;10.064;2022-07-19T03:34:04;13.10;99.90
5394;DHT22;2720;52.396;10.064;2022-07-19T03:36:31;13.10;99.90
5394;DHT22;2720;52.396;10.064;2022-07-19T03:39:00;13.20;99.90
5394;DHT22;2720;52.396;10.064;2022-07-19T03:41:27;13.20;99.90
5394;DHT22;2720;52.396;10.064;2022-07-19T03:43:54;13.20;99.90
5394;DHT22;2720;52.396;10.064;2022-07-19T03:46:21;13.20;99.90
5394;DHT22;2720;52.396;10.064;2022-07-19T03:48:48;13.20;99.90
5394;DHT22;2720;52.396;10.064;2022-07-19T03:51:15;13.30;99.90
5394;DHT22;2720;52.396;10.064;2022-07-19T03:53:42;13.40;99.90
5394;DHT22;2720;52.396;10.064;2022-07-19T03:56:10;13.50;99.90
5394;DHT22;2720;52.396;10.064;2022-07-19T03:58:37;13.50;99.90
5394;DHT22;2720;52.396;10.064;2022-07-19T04:01:04;13.60;99.90
5394;DHT22;2720;52.396;10.064;2022-07-19T04:03:36;13.70;99.90
5394;DHT22;2720;52.396;10.064;2022-07-19T04:06:03;13.70;99.90
5394;DHT22;2720;52.396;10.064;2022-07-19T04:08:30;13.60;99.90
5394;DHT22;2720;52.396;10.064;2022-07-19T04:10:57;13.50;99.90
5394;DHT22;2720;52.396;10.064;2022-07-19T04:13:26;13.60;99.90
5394;DHT22;2720;52.396;10.064;2022-07-19T04:15:53;13.80;99.90
5394;DHT22;2720;52.396;10.064;2022-07-19T04:18:20;13.80;99.90
5394;DHT22;2720;52.396;10.064;2022-07-19T04:20:47;13.90;99.90
5394;DHT22;2720;52.396;10.064;2022-07-19T04:23:14;13.90;99.90
5394;DHT22;2720;52.396;10.064;2022-07-19T04:25:41;14.00;99.90
5394;DHT22;2720;52.396;10.064;2022-07-19T04:28:08;14.00;99.90
5394;DHT22;2720;52.396;10.064;2022-07-19T04:30:36;14.10;99.90
5394;DHT22;2720;52.396;10.064;2022-07-19T04:33:03;14.00;99.90
5394;DHT22;2720;52.396;10.064;2022-07-19T04:35:30;13.90;99.90
5394;DHT22;2720;52.396;10.064;2022-07-19T04:37:57;14.10;99.90
5394;DHT22;2720;52.396;10.064;2022-07-19T04:40:24;14.20;99.90
5394;DHT22;2720;52.396;10.064;2022-07-19T04:42:51;14.30;99.90
5394;DHT22;2720;52.396;10.064;2022-07-19T04:45:18;14.40;99.90
5394;DHT22;2720;52.396;10.064;2022-07-19T04:47:46;14.50;99.90
5394;DHT22;2720;52.396;10.064;2022-07-19T04:50:13;14.70;99.90
5394;DHT22;2720;52.396;10.064;2022-07-19T04:52:40;14.70;99.90
5394;DHT22;2720;52.396;10.064;2022-07-19T05:17:20;15.60;99.90
5394;DHT22;2720;52.396;10.064;2022-07-19T05:19:47;15.80;99.90
5394;DHT22;2720;52.396;10.064;2022-07-19T05:22:16;16.20;99.90
5394;DHT22;2720;52.396;10.064;2022-07-19T05:27:11;16.30;99.90
5394;DHT22;2720;52.396;10.064;2022-07-19T05:29:38;16.60;99.90
5394;DHT22;2720;52.396;10.064;2022-07-19T05:32:05;16.60;99.90
5394;DHT22;2720;52.396;10.064;2022-07-19T05:34:32;16.60;99.90
5394;DHT22;2720;52.396;10.064;2022-07-19T05:36:59;13.10;99.90
5394;DHT22;2720;52.396;10.064;2022-07-19T05:39:28;16.90;99.90
5394;DHT22;2720;52.396;10.064;2022-07-19T05:41:55;17.00;99.90
5394;DHT22;2720;52.396;10.064;2022-07-19T05:44:22;17.10;99.90
5394;DHT22;2720;52.396;10.064;2022-07-19T05:46:49;17.50;99.90
5394;DHT22;2720;52.396;10.064;2022-07-19T05:49:16;17.50;99.90
5394;DHT22;2720;52.396;10.064;2022-07-19T05:51:43;17.70;99.90
5394;DHT22;2720;52.396;10.064;2022-07-19T05:54:10;17.90;99.90
5394;DHT22;2720;52.396;10.064;2022-07-19T05:56:39;18.20;99.90
5394;DHT22;2720;52.396;10.064;2022-07-19T05:59:06;18.20;99.90
5394;DHT22;2720;52.396;10.064;2022-07-19T06:01:33;18.30;99.90
5394;DHT22;2720;52.396;10.064;2022-07-19T06:04:00;18.50;99.90
5394;DHT22;2720;52.396;10.064;2022-07-19T06:06:28;18.60;99.90
5394;DHT22;2720;52.396;10.064;2022-07-19T06:08:55;18.70;99.90
5394;DHT22;2720;52.396;10.064;2022-07-19T06:11:23;16.30;99.90
5394;DHT22;2720;52.396;10.064;2022-07-19T06:13:53;18.90;99.90
5394;DHT22;2720;52.396;10.064;2022-07-19T06:16:20;19.10;99.90
5394;DHT22;2720;52.396;10.064;2022-07-19T06:18:47;19.90;99.90
5394;DHT22;2720;52.396;10.064;2022-07-19T06:21:16;19.70;99.90
5394;DHT22;2720;52.396;10.064;2022-07-19T06:23:45;19.90;99.90
5394;DHT22;2720;52.396;10.064;2022-07-19T06:26:12;19.50;99.90
5394;DHT22;2720;52.396;10.064;2022-07-19T06:28:39;18.50;99.90
5394;DHT22;2720;52.396;10.064;2022-07-19T06:31:08;19.90;99.90
5394;DHT22;2720;52.396;10.064;2022-07-19T06:33:35;20.00;99.90
5394;DHT22;2720;52.396;10.064;2022-07-19T06:36:02;20.00;99.90
5394;DHT22;2720;52.396;10.064;2022-07-19T06:38:30;20.10;99.90
5394;DHT22;2720;52.396;10.064;2022-07-19T06:40:57;20.30;99.90
5394;DHT22;2720;52.396;10.064;2022-07-19T06:43:23;20.40;99.90
5394;DHT22;2720;52.396;10.064;2022-07-19T06:45:50;20.50;99.90
5394;DHT22;2720;52.396;10.064;2022-07-19T06:48:19;20.60;99.90
5394;DHT22;2720;52.396;10.064;2022-07-19T06:50:46;20.80;99.90
5394;DHT22;2720;52.396;10.064;2022-07-19T06:53:13;20.90;99.90
5394;DHT22;2720;52.396;10.064;2022-07-19T06:55:40;21.10;99.90
5394;DHT22;2720;52.396;10.064;2022-07-19T06:58:07;21.20;99.90
5394;DHT22;2720;52.396;10.064;2022-07-19T07:00:34;21.40;99.90
5394;DHT22;2720;52.396;10.064;2022-07-19T07:03:01;21.70;99.90
5394;DHT22;2720;52.396;10.064;2022-07-19T07:05:30;21.90;99.90
5394;DHT22;2720;52.396;10.064;2022-07-19T07:07:57;22.00;99.90
5394;DHT22;2720;52.396;10.064;2022-07-19T07:10:24;22.00;99.90
5394;DHT22;2720;52.396;10.064;2022-07-19T07:12:51;22.10;99.90
5394;DHT22;2720;52.396;10.064;2022-07-19T07:15:18;22.20;99.90
5394;DHT22;2720;52.396;10.064;2022-07-19T07:17:45;22.30;99.90
5394;DHT22;2720;52.396;10.064;2022-07-19T07:20:12;22.50;99.90
5394;DHT22;2720;52.396;10.064;2022-07-19T07:22:41;22.70;99.90
5394;DHT22;2720;52.396;10.064;2022-07-19T07:25:08;22.90;99.90
5394;DHT22;2720;52.396;10.064;2022-07-19T07:27:35;23.00;99.90
5394;DHT22;2720;52.396;10.064;2022-07-19T07:30:05;23.20;99.90
5394;DHT22;2720;52.396;10.064;2022-07-19T07:32:32;23.40;99.90
5394;DHT22;2720;52.396;10.064;2022-07-19T07:34:59;23.40;99.90
5394;DHT22;2720;52.396;10.064;2022-07-19T07:37:26;23.50;99.90
5394;DHT22;2720;52.396;10.064;2022-07-19T07:39:55;23.60;99.90
5394;DHT22;2720;52.396;10.064;2022-07-19T07:42:22;23.80;99.90
5394;DHT22;2720;52.396;10.064;2022-07-19T07:44:50;23.90;99.90
5394;DHT22;2720;52.396;10.064;2022-07-19T07:47:17;24.00;99.90
5394;DHT22;2720;52.396;10.064;2022-07-19T07:49:44;24.10;99.90
5394;DHT22;2720;52.396;10.064;2022-07-19T07:52:11;24.50;99.90
5394;DHT22;2720;52.396;10.064;2022-07-19T07:54:38;24.70;99.90
5394;DHT22;2720;52.396;10.064;2022-07-19T07:57:07;24.90;99.90
5394;DHT22;2720;52.396;10.064;2022-07-19T07:59:34;25.10;99.90
5394;DHT22;2720;52.396;10.064;2022-07-19T08:02:01;25.20;99.90
5394;DHT22;2720;52.396;10.064;2022-07-19T08:04:28;25.30;99.90
5394;DHT22;2720;52.396;10.064;2022-07-19T08:06:55;25.50;99.90
5394;DHT22;2720;52.396;10.064;2022-07-19T08:09:21;25.70;99.90
5394;DHT22;2720;52.396;10.064;2022-07-19T08:11:48;25.80;99.90
5394;DHT22;2720;52.396;10.064;2022-07-19T08:14:17;25.90;99.90
5394;DHT22;2720;52.396;10.064;2022-07-19T08:16:44;25.90;99.90
5394;DHT22;2720;52.396;10.064;2022-07-19T08:19:11;26.10;99.90
5394;DHT22;2720;52.396;10.064;2022-07-19T08:21:38;26.20;99.90
5394;DHT22;2720;52.396;10.064;2022-07-19T08:24:05;26.20;99.90
5394;DHT22;2720;52.396;10.064;2022-07-19T08:26:32;26.40;99.90
5394;DHT22;2720;52.396;10.064;2022-07-19T08:28:59;26.50;99.90
5394;DHT22;2720;52.396;10.064;2022-07-19T08:31:27;26.50;99.90
5394;DHT22;2720;52.396;10.064;2022-07-19T08:33:54;26.60;99.90
5394;DHT22;2720;52.396;10.064;2022-07-19T08:36:21;26.70;99.90
5394;DHT22;2720;52.396;10.064;2022-07-19T08:38:48;25.70;99.90
5394;DHT22;2720;52.396;10.064;2022-07-19T08:41:15;27.10;99.60
5394;DHT22;2720;52.396;10.064;2022-07-19T08:43:43;27.30;98.50
5394;DHT22;2720;52.396;10.064;2022-07-19T08:46:10;27.40;99.10
5394;DHT22;2720;52.396;10.064;2022-07-19T08:48:38;27.40;98.90
5394;DHT22;2720;52.396;10.064;2022-07-19T08:51:06;27.40;99.90
5394;DHT22;2720;52.396;10.064;2022-07-19T08:53:34;27.40;98.80
5394;DHT22;2720;52.396;10.064;2022-07-19T08:56:04;27.60;98.30
5394;DHT22;2720;52.396;10.064;2022-07-19T08:58:52;27.90;95.10
5394;DHT22;2720;52.396;10.064;2022-07-19T09:01:18;28.00;95.40
5394;DHT22;2720;52.396;10.064;2022-07-19T09:04:07;28.10;94.50
5394;DHT22;2720;52.396;10.064;2022-07-19T09:06:39;28.20;95.10
5394;DHT22;2720;52.396;10.064;2022-07-19T09:09:06;28.20;92.60
5394;DHT22;2720;52.396;10.064;2022-07-19T09:11:35;28.20;93.90
5394;DHT22;2720;52.396;10.064;2022-07-19T09:14:09;28.30;94.60
5394;DHT22;2720;52.396;10.064;2022-07-19T09:16:53;28.40;95.10
5394;DHT22;2720;52.396;10.064;2022-07-19T09:19:23;28.50;94.50
5394;DHT22;2720;52.396;10.064;2022-07-19T09:21:51;28.70;93.70
5394;DHT22;2720;52.396;10.064;2022-07-19T09:24:19;28.90;93.40
5394;DHT22;2720;52.396;10.064;2022-07-19T09:26:57;29.00;93.50
5394;DHT22;2720;52.396;10.064;2022-07-19T09:29:24;29.20;94.10
5394;DHT22;2720;52.396;10.064;2022-07-19T09:32:06;29.30;93.60
5394;DHT22;2720;52.396;10.064;2022-07-19T09:34:35;29.30;92.80
5394;DHT22;2720;52.396;10.064;2022-07-19T09:37:10;29.30;93.40
5394;DHT22;2720;52.396;10.064;2022-07-19T09:39:37;29.40;94.90
5394;DHT22;2720;52.396;10.064;2022-07-19T09:42:07;29.40;92.40
5394;DHT22;2720;52.396;10.064;2022-07-19T09:44:34;29.40;91.40
5394;DHT22;2720;52.396;10.064;2022-07-19T09:47:01;29.50;91.80
5394;DHT22;2720;52.396;10.064;2022-07-19T09:49:28;29.60;92.70
5394;DHT22;2720;52.396;10.064;2022-07-19T09:51:57;29.80;91.00
5394;DHT22;2720;52.396;10.064;2022-07-19T09:54:25;30.10;90.10
5394;DHT22;2720;52.396;10.064;2022-07-19T09:56:54;30.10;91.40
5394;DHT22;2720;52.396;10.064;2022-07-19T09:59:22;30.10;90.90
5394;DHT22;2720;52.396;10.064;2022-07-19T10:01:52;30.10;89.10
5394;DHT22;2720;52.396;10.064;2022-07-19T10:04:21;30.20;90.00
5394;DHT22;2720;52.396;10.064;2022-07-19T10:06:50;30.30;90.80
5394;DHT22;2720;52.396;10.064;2022-07-19T10:09:20;30.30;90.10
5394;DHT22;2720;52.396;10.064;2022-07-19T10:11:48;30.30;90.00
5394;DHT22;2720;52.396;10.064;2022-07-19T10:14:15;30.30;90.70
5394;DHT22;2720;52.396;10.064;2022-07-19T10:16:52;30.40;88.30
5394;DHT22;2720;52.396;10.064;2022-07-19T10:19:28;30.50;87.50
5394;DHT22;2720;52.396;10.064;2022-07-19T10:21:57;30.50;86.00
5394;DHT22;2720;52.396;10.064;2022-07-19T10:24:47;30.50;84.00
5394;DHT22;2720;52.396;10.064;2022-07-19T10:27:15;30.60;84.70
5394;DHT22;2720;52.396;10.064;2022-07-19T10:29:42;30.70;86.00
5394;DHT22;2720;52.396;10.064;2022-07-19T10:32:12;30.80;86.60
5394;DHT22;2720;52.396;10.064;2022-07-19T10:34:39;30.90;86.20
5394;DHT22;2720;52.396;10.064;2022-07-19T10:37:06;31.00;86.20
5394;DHT22;2720;52.396;10.064;2022-07-19T10:39:35;31.20;90.00
5394;DHT22;2720;52.396;10.064;2022-07-19T10:42:12;31.40;84.80
5394;DHT22;2720;52.396;10.064;2022-07-19T10:45:12;31.40;84.70
5394;DHT22;2720;52.396;10.064;2022-07-19T10:47:59;31.50;89.30
5394;DHT22;2720;52.396;10.064;2022-07-19T10:50:42;31.70;88.20
5394;DHT22;2720;52.396;10.064;2022-07-19T10:53:10;31.70;77.00
5394;DHT22;2720;52.396;10.064;2022-07-19T10:55:38;31.80;78.30
5394;DHT22;2720;52.396;10.064;2022-07-19T10:58:11;31.90;77.90
5394;DHT22;2720;52.396;10.064;2022-07-19T11:00:42;32.00;79.70
5394;DHT22;2720;52.396;10.064;2022-07-19T11:03:28;32.20;83.60
5394;DHT22;2720;52.396;10.064;2022-07-19T11:05:57;32.40;80.70
5394;DHT22;2720;52.396;10.064;2022-07-19T11:08:31;32.50;76.60
5394;DHT22;2720;52.396;10.064;2022-07-19T11:11:03;32.60;77.30
5394;DHT22;2720;52.396;10.064;2022-07-19T11:13:32;32.80;76.70
5394;DHT22;2720;52.396;10.064;2022-07-19T11:15:59;33.00;74.60
5394;DHT22;2720;52.396;10.064;2022-07-19T11:18:28;33.20;74.50
5394;DHT22;2720;52.396;10.064;2022-07-19T11:20:57;33.30;74.40
5394;DHT22;2720;52.396;10.064;2022-07-19T11:23:28;33.60;76.80
5394;DHT22;2720;52.396;10.064;2022-07-19T11:26:05;34.00;81.10
5394;DHT22;2720;52.396;10.064;2022-07-19T11:28:35;34.30;75.00
5394;DHT22;2720;52.396;10.064;2022-07-19T11:31:11;34.70;75.10
5394;DHT22;2720;52.396;10.064;2022-07-19T11:33:38;35.10;70.80
5394;DHT22;2720;52.396;10.064;2022-07-19T11:36:06;35.60;72.30
5394;DHT22;2720;52.396;10.064;2022-07-19T11:38:37;36.10;72.30
5394;DHT22;2720;52.396;10.064;2022-07-19T11:41:08;36.60;73.30
5394;DHT22;2720;52.396;10.064;2022-07-19T11:43:37;37.00;67.00
5394;DHT22;2720;52.396;10.064;2022-07-19T11:46:04;37.00;69.20
5394;DHT22;2720;52.396;10.064;2022-07-19T11:48:31;37.40;68.50
5394;DHT22;2720;52.396;10.064;2022-07-19T11:51:00;37.60;69.80
5394;DHT22;2720;52.396;10.064;2022-07-19T11:53:28;37.80;63.00
5394;DHT22;2720;52.396;10.064;2022-07-19T11:55:55;37.60;62.90
5394;DHT22;2720;52.396;10.064;2022-07-19T11:58:23;37.60;63.10
5394;DHT22;2720;52.396;10.064;2022-07-19T12:00:52;37.60;61.20
5394;DHT22;2720;52.396;10.064;2022-07-19T12:03:19;37.40;62.10
5394;DHT22;2720;52.396;10.064;2022-07-19T12:05:57;37.30;62.50
5394;DHT22;2720;52.396;10.064;2022-07-19T12:08:39;37.60;63.00
5394;DHT22;2720;52.396;10.064;2022-07-19T12:11:17;38.00;60.90
5394;DHT22;2720;52.396;10.064;2022-07-19T12:13:44;38.40;60.30
5394;DHT22;2720;52.396;10.064;2022-07-19T12:16:13;38.40;58.20
5394;DHT22;2720;52.396;10.064;2022-07-19T12:18:45;38.20;60.40
5394;DHT22;2720;52.396;10.064;2022-07-19T12:21:38;38.70;59.00
5394;DHT22;2720;52.396;10.064;2022-07-19T12:24:21;39.10;59.40
5394;DHT22;2720;52.396;10.064;2022-07-19T12:27:03;38.70;58.70
5394;DHT22;2720;52.396;10.064;2022-07-19T12:29:33;38.70;59.30
5394;DHT22;2720;52.396;10.064;2022-07-19T12:32:04;40.30;71.50
5394;DHT22;2720;52.396;10.064;2022-07-19T12:34:44;39.80;58.00
5394;DHT22;2720;52.396;10.064;2022-07-19T12:37:19;40.30;64.20
5394;DHT22;2720;52.396;10.064;2022-07-19T12:39:57;40.70;60.60
5394;DHT22;2720;52.396;10.064;2022-07-19T12:45:53;41.60;59.20
5394;DHT22;2720;52.396;10.064;2022-07-19T12:48:21;41.70;64.00
5394;DHT22;2720;52.396;10.064;2022-07-19T12:50:51;41.50;85.70
5394;DHT22;2720;52.396;10.064;2022-07-19T12:53:19;40.90;58.30
5394;DHT22;2720;52.396;10.064;2022-07-19T12:55:47;40.90;54.50
5394;DHT22;2720;52.396;10.064;2022-07-19T12:58:16;40.80;53.40
5394;DHT22;2720;52.396;10.064;2022-07-19T13:01:04;41.00;63.80
5394;DHT22;2720;52.396;10.064;2022-07-19T13:03:35;40.80;53.10
5394;DHT22;2720;52.396;10.064;2022-07-19T13:06:02;41.00;54.10
5394;DHT22;2720;52.396;10.064;2022-07-19T13:08:29;40.90;53.20
5394;DHT22;2720;52.396;10.064;2022-07-19T13:10:57;41.00;55.00
5394;DHT22;2720;52.396;10.064;2022-07-19T13:13:24;43.50;58.00
5394;DHT22;2720;52.396;10.064;2022-07-19T13:15:52;40.30;52.90
5394;DHT22;2720;52.396;10.064;2022-07-19T13:18:19;39.70;56.10
5394;DHT22;2720;52.396;10.064;2022-07-19T13:20:48;39.80;52.80
5394;DHT22;2720;52.396;10.064;2022-07-19T13:23:16;41.20;53.80
5394;DHT22;2720;52.396;10.064;2022-07-19T13:25:43;39.80;51.60
5394;DHT22;2720;52.396;10.064;2022-07-19T13:28:10;39.80;50.60
5394;DHT22;2720;52.396;10.064;2022-07-19T13:30:37;41.10;52.00
5394;DHT22;2720;52.396;10.064;2022-07-19T13:33:04;40.10;56.70
5394;DHT22;2720;52.396;10.064;2022-07-19T13:35:31;40.40;52.30
5394;DHT22;2720;52.396;10.064;2022-07-19T13:38:00;40.90;56.20
5394;DHT22;2720;52.396;10.064;2022-07-19T13:40:27;41.40;52.00
5394;DHT22;2720;52.396;10.064;2022-07-19T13:42:55;41.60;50.60
5394;DHT22;2720;52.396;10.064;2022-07-19T13:45:22;41.30;50.40
5394;DHT22;2720;52.396;10.064;2022-07-19T13:47:49;41.10;50.90
5394;DHT22;2720;52.396;10.064;2022-07-19T13:50:16;41.20;51.40
5394;DHT22;2720;52.396;10.064;2022-07-19T13:52:43;44.20;52.90
5394;DHT22;2720;52.396;10.064;2022-07-19T13:55:11;41.30;53.00
5394;DHT22;2720;52.396;10.064;2022-07-19T13:57:38;41.80;54.20
5394;DHT22;2720;52.396;10.064;2022-07-19T14:00:06;41.60;50.20
5394;DHT22;2720;52.396;10.064;2022-07-19T14:02:34;41.30;52.20
5394;DHT22;2720;52.396;10.064;2022-07-19T14:05:01;41.10;50.10
5394;DHT22;2720;52.396;10.064;2022-07-19T14:07:28;40.90;51.70
5394;DHT22;2720;52.396;10.064;2022-07-19T14:09:55;40.50;50.70
5394;DHT22;2720;52.396;10.064;2022-07-19T14:12:23;41.20;51.60
5394;DHT22;2720;52.396;10.064;2022-07-19T14:14:50;40.10;50.90
5394;DHT22;2720;52.396;10.064;2022-07-19T14:17:17;40.40;52.60
5394;DHT22;2720;52.396;10.064;2022-07-19T14:19:44;40.70;51.90
5394;DHT22;2720;52.396;10.064;2022-07-19T14:22:11;40.60;51.80
5394;DHT22;2720;52.396;10.064;2022-07-19T14:24:38;39.60;50.50
5394;DHT22;2720;52.396;10.064;2022-07-19T14:27:05;40.00;51.90
5394;DHT22;2720;52.396;10.064;2022-07-19T14:29:34;40.00;55.20
5394;DHT22;2720;52.396;10.064;2022-07-19T14:32:01;39.90;50.10
5394;DHT22;2720;52.396;10.064;2022-07-19T14:34:28;39.90;50.60
5394;DHT22;2720;52.396;10.064;2022-07-19T14:36:54;39.40;49.70
5394;DHT22;2720;52.396;10.064;2022-07-19T14:39:21;38.90;50.40
5394;DHT22;2720;52.396;10.064;2022-07-19T14:41:49;38.50;49.70
5394;DHT22;2720;52.396;10.064;2022-07-19T14:44:16;37.90;51.10
5394;DHT22;2720;52.396;10.064;2022-07-19T14:46:44;37.60;51.30
5394;DHT22;2720;52.396;10.064;2022-07-19T14:49:11;37.30;51.30
5394;DHT22;2720;52.396;10.064;2022-07-19T14:51:38;37.20;52.00
5394;DHT22;2720;52.396;10.064;2022-07-19T14:54:06;36.90;51.80
5394;DHT22;2720;52.396;10.064;2022-07-19T14:56:33;36.80;51.90
5394;DHT22;2720;52.396;10.064;2022-07-19T14:59:00;36.80;51.60
5394;DHT22;2720;52.396;10.064;2022-07-19T15:01:27;36.80;52.70
5394;DHT22;2720;52.396;10.064;2022-07-19T15:03:55;36.90;54.80
5394;DHT22;2720;52.396;10.064;2022-07-19T15:06:22;36.80;53.70
5394;DHT22;2720;52.396;10.064;2022-07-19T15:08:49;36.80;54.20
5394;DHT22;2720;52.396;10.064;2022-07-19T15:11:16;36.70;53.10
5394;DHT22;2720;52.396;10.064;2022-07-19T15:13:43;36.50;53.90
5394;DHT22;2720;52.396;10.064;2022-07-19T15:16:10;36.30;53.70
5394;DHT22;2720;52.396;10.064;2022-07-19T15:18:37;36.30;53.30
5394;DHT22;2720;52.396;10.064;2022-07-19T15:21:07;36.50;53.60
5394;DHT22;2720;52.396;10.064;2022-07-19T15:23:34;36.70;53.70
5394;DHT22;2720;52.396;10.064;2022-07-19T15:26:01;37.20;52.40
5394;DHT22;2720;52.396;10.064;2022-07-19T15:28:28;37.70;57.40
5394;DHT22;2720;52.396;10.064;2022-07-19T15:30:55;38.30;55.80
5394;DHT22;2720;52.396;10.064;2022-07-19T15:33:23;38.80;51.20
5394;DHT22;2720;52.396;10.064;2022-07-19T15:35:49;39.60;91.20
5394;DHT22;2720;52.396;10.064;2022-07-19T15:38:18;40.40;90.70
5394;DHT22;2720;52.396;10.064;2022-07-19T15:40:45;40.70;89.60
5394;DHT22;2720;52.396;10.064;2022-07-19T15:43:12;41.10;69.10
5394;DHT22;2720;52.396;10.064;2022-07-19T15:45:39;41.50;76.80
5394;DHT22;2720;52.396;10.064;2022-07-19T15:48:06;41.50;49.20
5394;DHT22;2720;52.396;10.064;2022-07-19T15:50:33;41.50;76.10
5394;DHT22;2720;52.396;10.064;2022-07-19T15:53:03;41.50;67.30
5394;DHT22;2720;52.396;10.064;2022-07-19T15:55:31;41.40;89.00
5394;DHT22;2720;52.396;10.064;2022-07-19T15:57:58;41.20;89.50
5394;DHT22;2720;52.396;10.064;2022-07-19T16:00:25;40.90;51.00
5394;DHT22;2720;52.396;10.064;2022-07-19T16:02:52;40.40;49.20
5394;DHT22;2720;52.396;10.064;2022-07-19T16:05:20;40.20;48.30
5394;DHT22;2720;52.396;10.064;2022-07-19T16:07:47;40.10;49.00
5394;DHT22;2720;52.396;10.064;2022-07-19T16:10:14;40.00;49.80
5394;DHT22;2720;52.396;10.064;2022-07-19T16:12:43;39.70;50.00
5394;DHT22;2720;52.396;10.064;2022-07-19T16:15:10;39.40;50.20
5394;DHT22;2720;52.396;10.064;2022-07-19T16:17:37;39.40;50.50
5394;DHT22;2720;52.396;10.064;2022-07-19T16:20:05;38.90;49.80